Adam, Oman
Current Conditions -  °F | °C
As of 12:50 PM on Wednesday 22 Oct 2014 (Local Time) from EQMN Reporting Station
Clear Clear  
Wind Chill: 100°   Ceiling: Unl
Heat Index: 100°   Visibility: 6mi
Dew Point: 39°   Wind: 6mph
Humidity: 12%   Direction: 300°WNW
Pressure: 29.91"   Gusts: NA
Location:  22.38°N, 57.52°E
Report Text: EQMN 220850Z 30005KT 9999 SKC 38/04 Q1013 BLU NOSIG
Loading
Personal Weather Stations






























Interactive Weather Map
Tropical Storm Tracking
New forecast layout! Learn more

10-Day Weather Forecast

Advertisements
Track Severe Weather on mobile